sensor_id;sensor_type;location;lat;lon;timestamp;temperature;humidity
34644;DHT22;26931;43.498;-1.506;2023-04-29T00:00:54;19.00;99.50
34644;DHT22;26931;43.498;-1.506;2023-04-29T00:03:20;19.00;99.50
34644;DHT22;26931;43.498;-1.506;2023-04-29T00:05:46;19.10;99.50
34644;DHT22;26931;43.498;-1.506;2023-04-29T00:08:12;18.80;99.40
34644;DHT22;26931;43.498;-1.506;2023-04-29T00:10:39;19.00;99.50
34644;DHT22;26931;43.498;-1.506;2023-04-29T00:13:05;19.00;99.50
34644;DHT22;26931;43.498;-1.506;2023-04-29T00:15:31;19.00;99.50
34644;DHT22;26931;43.498;-1.506;2023-04-29T00:17:57;19.00;99.50
34644;DHT22;26931;43.498;-1.506;2023-04-29T00:20:23;19.00;99.50
34644;DHT22;26931;43.498;-1.506;2023-04-29T00:22:48;19.00;99.40
34644;DHT22;26931;43.498;-1.506;2023-04-29T00:25:14;19.00;99.50
34644;DHT22;26931;43.498;-1.506;2023-04-29T00:27:41;18.90;99.50
34644;DHT22;26931;43.498;-1.506;2023-04-29T00:30:07;18.90;99.50
34644;DHT22;26931;43.498;-1.506;2023-04-29T00:32:34;18.90;99.50
34644;DHT22;26931;43.498;-1.506;2023-04-29T00:35:01;18.90;99.50
34644;DHT22;26931;43.498;-1.506;2023-04-29T00:37:27;18.90;99.50
34644;DHT22;26931;43.498;-1.506;2023-04-29T00:39:53;18.90;99.60
34644;DHT22;26931;43.498;-1.506;2023-04-29T00:42:19;18.90;99.60
34644;DHT22;26931;43.498;-1.506;2023-04-29T00:44:47;18.90;99.60
34644;DHT22;26931;43.498;-1.506;2023-04-29T00:47:13;18.90;99.50
34644;DHT22;26931;43.498;-1.506;2023-04-29T00:49:39;18.90;99.60
34644;DHT22;26931;43.498;-1.506;2023-04-29T00:52:06;18.90;99.60
34644;DHT22;26931;43.498;-1.506;2023-04-29T00:54:36;18.90;99.70
34644;DHT22;26931;43.498;-1.506;2023-04-29T00:57:05;18.90;99.60
34644;DHT22;26931;43.498;-1.506;2023-04-29T00:59:32;18.90;99.60
34644;DHT22;26931;43.498;-1.506;2023-04-29T01:02:02;18.90;99.50
34644;DHT22;26931;43.498;-1.506;2023-04-29T01:04:31;18.90;99.50
34644;DHT22;26931;43.498;-1.506;2023-04-29T01:07:13;18.90;99.50
34644;DHT22;26931;43.498;-1.506;2023-04-29T01:15:04;18.90;99.90
34644;DHT22;26931;43.498;-1.506;2023-04-29T01:17:49;18.90;99.50
34644;DHT22;26931;43.498;-1.506;2023-04-29T01:20:16;18.80;99.50
34644;DHT22;26931;43.498;-1.506;2023-04-29T01:22:44;19.10;99.60
34644;DHT22;26931;43.498;-1.506;2023-04-29T01:25:10;19.10;99.60
34644;DHT22;26931;43.498;-1.506;2023-04-29T01:27:46;19.10;99.70
34644;DHT22;26931;43.498;-1.506;2023-04-29T01:30:39;18.80;99.60
34644;DHT22;26931;43.498;-1.506;2023-04-29T01:36:11;18.80;99.70
34644;DHT22;26931;43.498;-1.506;2023-04-29T01:43:59;18.70;99.70
34644;DHT22;26931;43.498;-1.506;2023-04-29T01:46:27;18.70;99.80
34644;DHT22;26931;43.498;-1.506;2023-04-29T01:48:54;18.80;99.80
34644;DHT22;26931;43.498;-1.506;2023-04-29T01:51:20;18.80;99.70
34644;DHT22;26931;43.498;-1.506;2023-04-29T01:53:46;18.70;99.70
34644;DHT22;26931;43.498;-1.506;2023-04-29T01:56:13;18.70;99.70
34644;DHT22;26931;43.498;-1.506;2023-04-29T01:58:39;18.80;99.70
34644;DHT22;26931;43.498;-1.506;2023-04-29T02:01:05;18.70;99.70
34644;DHT22;26931;43.498;-1.506;2023-04-29T02:03:31;18.70;99.70
34644;DHT22;26931;43.498;-1.506;2023-04-29T02:05:57;18.70;99.70
34644;DHT22;26931;43.498;-1.506;2023-04-29T02:08:23;18.70;99.70
34644;DHT22;26931;43.498;-1.506;2023-04-29T02:10:57;18.70;99.80
34644;DHT22;26931;43.498;-1.506;2023-04-29T02:13:23;18.70;99.80
34644;DHT22;26931;43.498;-1.506;2023-04-29T02:15:49;18.70;99.80
34644;DHT22;26931;43.498;-1.506;2023-04-29T02:18:15;18.70;99.80
34644;DHT22;26931;43.498;-1.506;2023-04-29T02:20:41;18.70;99.90
34644;DHT22;26931;43.498;-1.506;2023-04-29T02:23:07;18.70;99.90
34644;DHT22;26931;43.498;-1.506;2023-04-29T02:25:33;18.80;99.80
34644;DHT22;26931;43.498;-1.506;2023-04-29T02:27:59;18.70;99.80
34644;DHT22;26931;43.498;-1.506;2023-04-29T02:30:26;18.70;99.80
34644;DHT22;26931;43.498;-1.506;2023-04-29T02:32:52;19.00;99.80
34644;DHT22;26931;43.498;-1.506;2023-04-29T02:35:19;18.70;99.80
34644;DHT22;26931;43.498;-1.506;2023-04-29T02:37:45;18.70;99.80
34644;DHT22;26931;43.498;-1.506;2023-04-29T02:40:11;18.70;99.90
34644;DHT22;26931;43.498;-1.506;2023-04-29T02:42:37;18.60;99.90
34644;DHT22;26931;43.498;-1.506;2023-04-29T02:45:04;18.70;99.90
34644;DHT22;26931;43.498;-1.506;2023-04-29T02:47:29;18.70;99.90
34644;DHT22;26931;43.498;-1.506;2023-04-29T02:49:55;18.70;99.80
34644;DHT22;26931;43.498;-1.506;2023-04-29T02:52:21;18.70;99.80
34644;DHT22;26931;43.498;-1.506;2023-04-29T02:54:47;18.70;99.80
34644;DHT22;26931;43.498;-1.506;2023-04-29T02:57:13;18.70;99.80
34644;DHT22;26931;43.498;-1.506;2023-04-29T02:59:39;18.70;99.70
34644;DHT22;26931;43.498;-1.506;2023-04-29T03:02:05;18.70;99.70
34644;DHT22;26931;43.498;-1.506;2023-04-29T03:04:31;18.70;99.70
34644;DHT22;26931;43.498;-1.506;2023-04-29T03:06:57;18.70;99.70
34644;DHT22;26931;43.498;-1.506;2023-04-29T03:09:23;18.90;99.80
34644;DHT22;26931;43.498;-1.506;2023-04-29T03:11:49;18.60;99.70
34644;DHT22;26931;43.498;-1.506;2023-04-29T03:14:15;18.60;99.80
34644;DHT22;26931;43.498;-1.506;2023-04-29T03:16:41;18.60;99.80
34644;DHT22;26931;43.498;-1.506;2023-04-29T03:19:07;18.60;99.90
34644;DHT22;26931;43.498;-1.506;2023-04-29T03:21:35;18.60;99.90
34644;DHT22;26931;43.498;-1.506;2023-04-29T03:24:01;18.60;99.90
34644;DHT22;26931;43.498;-1.506;2023-04-29T03:26:27;18.60;99.90
34644;DHT22;26931;43.498;-1.506;2023-04-29T03:28:53;18.50;99.90
34644;DHT22;26931;43.498;-1.506;2023-04-29T03:31:19;18.60;99.90
34644;DHT22;26931;43.498;-1.506;2023-04-29T03:33:47;18.60;99.90
34644;DHT22;26931;43.498;-1.506;2023-04-29T03:36:13;18.70;99.90
34644;DHT22;26931;43.498;-1.506;2023-04-29T03:38:40;18.70;99.90
34644;DHT22;26931;43.498;-1.506;2023-04-29T03:41:06;18.70;99.90
34644;DHT22;26931;43.498;-1.506;2023-04-29T03:43:32;18.60;99.90
34644;DHT22;26931;43.498;-1.506;2023-04-29T03:45:58;18.70;99.90
34644;DHT22;26931;43.498;-1.506;2023-04-29T03:48:24;18.70;99.90
34644;DHT22;26931;43.498;-1.506;2023-04-29T03:50:50;18.60;99.90
34644;DHT22;26931;43.498;-1.506;2023-04-29T03:53:16;18.60;99.90
34644;DHT22;26931;43.498;-1.506;2023-04-29T03:55:43;18.60;99.90
34644;DHT22;26931;43.498;-1.506;2023-04-29T03:58:09;18.60;99.90
34644;DHT22;26931;43.498;-1.506;2023-04-29T04:00:35;18.60;99.90
34644;DHT22;26931;43.498;-1.506;2023-04-29T04:03:01;18.50;99.90
34644;DHT22;26931;43.498;-1.506;2023-04-29T04:05:27;18.60;99.90
34644;DHT22;26931;43.498;-1.506;2023-04-29T04:07:54;18.50;99.90
34644;DHT22;26931;43.498;-1.506;2023-04-29T04:10:20;18.70;99.90
34644;DHT22;26931;43.498;-1.506;2023-04-29T04:12:46;18.60;99.90
34644;DHT22;26931;43.498;-1.506;2023-04-29T04:15:14;18.60;99.90
34644;DHT22;26931;43.498;-1.506;2023-04-29T04:17:41;18.50;99.90
34644;DHT22;26931;43.498;-1.506;2023-04-29T04:20:07;18.50;99.90
34644;DHT22;26931;43.498;-1.506;2023-04-29T04:22:33;18.50;99.90
34644;DHT22;26931;43.498;-1.506;2023-04-29T04:24:59;18.50;99.90
34644;DHT22;26931;43.498;-1.506;2023-04-29T04:27:25;18.50;99.90
34644;DHT22;26931;43.498;-1.506;2023-04-29T04:29:55;18.50;99.90
34644;DHT22;26931;43.498;-1.506;2023-04-29T04:32:21;18.50;99.90
34644;DHT22;26931;43.498;-1.506;2023-04-29T04:34:48;18.50;99.90
34644;DHT22;26931;43.498;-1.506;2023-04-29T04:37:15;18.40;99.90
34644;DHT22;26931;43.498;-1.506;2023-04-29T04:39:42;18.40;99.90
34644;DHT22;26931;43.498;-1.506;2023-04-29T04:42:08;18.50;99.90
34644;DHT22;26931;43.498;-1.506;2023-04-29T04:44:34;18.50;99.90
34644;DHT22;26931;43.498;-1.506;2023-04-29T04:47:00;18.50;99.90
34644;DHT22;26931;43.498;-1.506;2023-04-29T04:49:26;18.50;99.90
34644;DHT22;26931;43.498;-1.506;2023-04-29T04:51:53;18.40;99.90
34644;DHT22;26931;43.498;-1.506;2023-04-29T04:54:19;18.40;99.90
34644;DHT22;26931;43.498;-1.506;2023-04-29T04:56:45;18.20;99.90
34644;DHT22;26931;43.498;-1.506;2023-04-29T04:59:11;18.40;99.90
34644;DHT22;26931;43.498;-1.506;2023-04-29T05:01:37;18.30;99.90
34644;DHT22;26931;43.498;-1.506;2023-04-29T05:04:03;18.30;99.90
34644;DHT22;26931;43.498;-1.506;2023-04-29T05:06:29;18.30;99.90
34644;DHT22;26931;43.498;-1.506;2023-04-29T05:08:55;18.30;99.90
34644;DHT22;26931;43.498;-1.506;2023-04-29T05:11:21;18.30;99.90
34644;DHT22;26931;43.498;-1.506;2023-04-29T05:13:47;18.60;99.90
34644;DHT22;26931;43.498;-1.506;2023-04-29T05:16:14;18.30;99.90
34644;DHT22;26931;43.498;-1.506;2023-04-29T05:18:41;18.30;99.90
34644;DHT22;26931;43.498;-1.506;2023-04-29T05:21:10;18.50;99.90
34644;DHT22;26931;43.498;-1.506;2023-04-29T05:23:36;18.50;99.90
34644;DHT22;26931;43.498;-1.506;2023-04-29T05:26:03;18.30;99.90
34644;DHT22;26931;43.498;-1.506;2023-04-29T05:28:29;18.20;99.90
34644;DHT22;26931;43.498;-1.506;2023-04-29T05:30:55;18.50;99.90
34644;DHT22;26931;43.498;-1.506;2023-04-29T05:33:22;18.30;99.90
34644;DHT22;26931;43.498;-1.506;2023-04-29T05:35:48;18.30;99.90
34644;DHT22;26931;43.498;-1.506;2023-04-29T05:38:14;18.50;99.90
34644;DHT22;26931;43.498;-1.506;2023-04-29T05:40:40;18.40;99.90
34644;DHT22;26931;43.498;-1.506;2023-04-29T05:43:06;18.30;99.90
34644;DHT22;26931;43.498;-1.506;2023-04-29T05:45:32;18.50;99.90
34644;DHT22;26931;43.498;-1.506;2023-04-29T05:47:58;18.50;99.90
34644;DHT22;26931;43.498;-1.506;2023-04-29T05:50:24;18.30;99.90
34644;DHT22;26931;43.498;-1.506;2023-04-29T05:52:51;18.30;99.90
34644;DHT22;26931;43.498;-1.506;2023-04-29T05:55:19;18.30;99.90
34644;DHT22;26931;43.498;-1.506;2023-04-29T05:57:45;18.20;99.90
34644;DHT22;26931;43.498;-1.506;2023-04-29T06:00:11;18.30;99.90
34644;DHT22;26931;43.498;-1.506;2023-04-29T06:02:38;18.30;99.90
34644;DHT22;26931;43.498;-1.506;2023-04-29T06:05:07;18.30;99.90
34644;DHT22;26931;43.498;-1.506;2023-04-29T06:07:34;18.20;99.90
34644;DHT22;26931;43.498;-1.506;2023-04-29T06:10:00;18.30;99.90
34644;DHT22;26931;43.498;-1.506;2023-04-29T06:12:26;18.30;99.90
34644;DHT22;26931;43.498;-1.506;2023-04-29T06:14:52;18.30;99.90
34644;DHT22;26931;43.498;-1.506;2023-04-29T06:17:17;18.50;99.90
34644;DHT22;26931;43.498;-1.506;2023-04-29T06:19:43;18.40;99.90
34644;DHT22;26931;43.498;-1.506;2023-04-29T06:22:09;18.30;99.90
34644;DHT22;26931;43.498;-1.506;2023-04-29T06:24:35;18.40;99.90
34644;DHT22;26931;43.498;-1.506;2023-04-29T06:27:01;18.40;99.90
34644;DHT22;26931;43.498;-1.506;2023-04-29T06:29:28;18.30;99.90
34644;DHT22;26931;43.498;-1.506;2023-04-29T06:31:55;18.40;99.90
34644;DHT22;26931;43.498;-1.506;2023-04-29T06:34:21;18.30;99.90
34644;DHT22;26931;43.498;-1.506;2023-04-29T06:36:47;18.30;99.90
34644;DHT22;26931;43.498;-1.506;2023-04-29T06:39:13;18.30;99.90
34644;DHT22;26931;43.498;-1.506;2023-04-29T06:41:39;18.20;99.90
34644;DHT22;26931;43.498;-1.506;2023-04-29T06:44:05;18.20;99.90
34644;DHT22;26931;43.498;-1.506;2023-04-29T06:46:31;18.10;99.90
34644;DHT22;26931;43.498;-1.506;2023-04-29T06:48:57;18.20;99.90
34644;DHT22;26931;43.498;-1.506;2023-04-29T06:51:23;18.20;99.90
34644;DHT22;26931;43.498;-1.506;2023-04-29T06:53:49;18.20;99.90
34644;DHT22;26931;43.498;-1.506;2023-04-29T06:56:15;18.30;99.90
34644;DHT22;26931;43.498;-1.506;2023-04-29T06:58:41;18.20;99.90
34644;DHT22;26931;43.498;-1.506;2023-04-29T07:01:07;18.20;99.90
34644;DHT22;26931;43.498;-1.506;2023-04-29T07:03:33;18.20;99.90
34644;DHT22;26931;43.498;-1.506;2023-04-29T07:05:59;18.20;99.90
34644;DHT22;26931;43.498;-1.506;2023-04-29T07:08:25;18.30;99.90
34644;DHT22;26931;43.498;-1.506;2023-04-29T07:10:56;18.20;99.90
34644;DHT22;26931;43.498;-1.506;2023-04-29T07:13:24;18.20;99.90
34644;DHT22;26931;43.498;-1.506;2023-04-29T07:15:50;18.20;99.90
34644;DHT22;26931;43.498;-1.506;2023-04-29T07:18:16;18.30;99.90
34644;DHT22;26931;43.498;-1.506;2023-04-29T07:20:42;18.50;99.90
34644;DHT22;26931;43.498;-1.506;2023-04-29T07:23:10;18.20;99.90
34644;DHT22;26931;43.498;-1.506;2023-04-29T07:25:36;18.20;99.90
34644;DHT22;26931;43.498;-1.506;2023-04-29T07:28:02;18.10;99.90
34644;DHT22;26931;43.498;-1.506;2023-04-29T07:30:29;18.20;99.90
34644;DHT22;26931;43.498;-1.506;2023-04-29T07:32:55;18.20;99.90
34644;DHT22;26931;43.498;-1.506;2023-04-29T07:35:21;18.20;99.90
34644;DHT22;26931;43.498;-1.506;2023-04-29T07:37:47;18.20;99.90
34644;DHT22;26931;43.498;-1.506;2023-04-29T07:40:13;18.20;99.90
34644;DHT22;26931;43.498;-1.506;2023-04-29T07:42:39;18.00;99.90
34644;DHT22;26931;43.498;-1.506;2023-04-29T07:45:06;18.20;99.90
34644;DHT22;26931;43.498;-1.506;2023-04-29T07:47:32;18.30;99.90
34644;DHT22;26931;43.498;-1.506;2023-04-29T07:49:58;18.20;99.90
34644;DHT22;26931;43.498;-1.506;2023-04-29T07:52:24;18.10;99.90
34644;DHT22;26931;43.498;-1.506;2023-04-29T07:54:51;18.00;99.90
34644;DHT22;26931;43.498;-1.506;2023-04-29T07:57:17;18.20;99.90
34644;DHT22;26931;43.498;-1.506;2023-04-29T07:59:43;18.20;99.90
34644;DHT22;26931;43.498;-1.506;2023-04-29T08:02:09;18.20;99.90
34644;DHT22;26931;43.498;-1.506;2023-04-29T08:04:38;18.20;99.90
34644;DHT22;26931;43.498;-1.506;2023-04-29T08:07:07;18.10;99.90
34644;DHT22;26931;43.498;-1.506;2023-04-29T08:09:34;18.10;99.90
34644;DHT22;26931;43.498;-1.506;2023-04-29T08:12:00;18.00;99.90
34644;DHT22;26931;43.498;-1.506;2023-04-29T08:14:26;18.10;99.90
34644;DHT22;26931;43.498;-1.506;2023-04-29T08:16:52;18.10;99.90
34644;DHT22;26931;43.498;-1.506;2023-04-29T08:19:19;18.10;99.90
34644;DHT22;26931;43.498;-1.506;2023-04-29T08:21:46;18.10;99.90
34644;DHT22;26931;43.498;-1.506;2023-04-29T08:24:12;18.10;99.90
34644;DHT22;26931;43.498;-1.506;2023-04-29T08:26:39;18.00;99.90
34644;DHT22;26931;43.498;-1.506;2023-04-29T08:29:07;18.10;99.90
34644;DHT22;26931;43.498;-1.506;2023-04-29T08:31:33;18.00;99.90
34644;DHT22;26931;43.498;-1.506;2023-04-29T08:33:59;18.10;99.90
34644;DHT22;26931;43.498;-1.506;2023-04-29T08:36:25;18.10;99.90
34644;DHT22;26931;43.498;-1.506;2023-04-29T08:38:55;18.10;99.90
34644;DHT22;26931;43.498;-1.506;2023-04-29T08:41:20;18.10;99.90
34644;DHT22;26931;43.498;-1.506;2023-04-29T08:43:46;18.00;99.90
34644;DHT22;26931;43.498;-1.506;2023-04-29T08:46:13;18.00;99.90
34644;DHT22;26931;43.498;-1.506;2023-04-29T08:48:39;18.00;99.90
34644;DHT22;26931;43.498;-1.506;2023-04-29T08:51:06;18.00;99.90
34644;DHT22;26931;43.498;-1.506;2023-04-29T08:53:31;18.00;99.90
34644;DHT22;26931;43.498;-1.506;2023-04-29T08:56:02;18.00;99.90
34644;DHT22;26931;43.498;-1.506;2023-04-29T08:58:33;18.00;99.90
34644;DHT22;26931;43.498;-1.506;2023-04-29T09:01:06;18.00;99.90
34644;DHT22;26931;43.498;-1.506;2023-04-29T09:03:41;18.00;99.90
34644;DHT22;26931;43.498;-1.506;2023-04-29T09:06:09;18.00;99.90
34644;DHT22;26931;43.498;-1.506;2023-04-29T09:08:37;18.00;99.90
34644;DHT22;26931;43.498;-1.506;2023-04-29T09:11:07;18.00;99.90
34644;DHT22;26931;43.498;-1.506;2023-04-29T09:13:33;18.10;99.90
34644;DHT22;26931;43.498;-1.506;2023-04-29T09:16:03;18.00;99.90
34644;DHT22;26931;43.498;-1.506;2023-04-29T09:18:45;18.00;99.90
34644;DHT22;26931;43.498;-1.506;2023-04-29T09:21:16;18.00;99.90
34644;DHT22;26931;43.498;-1.506;2023-04-29T09:23:43;18.00;99.90
34644;DHT22;26931;43.498;-1.506;2023-04-29T09:26:10;18.10;99.90
34644;DHT22;26931;43.498;-1.506;2023-04-29T09:28:36;18.10;99.90
34644;DHT22;26931;43.498;-1.506;2023-04-29T09:31:07;18.00;99.90
34644;DHT22;26931;43.498;-1.506;2023-04-29T09:33:50;18.10;99.90
34644;DHT22;26931;43.498;-1.506;2023-04-29T09:36:43;18.10;99.90
34644;DHT22;26931;43.498;-1.506;2023-04-29T09:39:12;18.10;99.90
34644;DHT22;26931;43.498;-1.506;2023-04-29T09:41:56;18.00;99.90
34644;DHT22;26931;43.498;-1.506;2023-04-29T09:44:32;18.00;99.90
34644;DHT22;26931;43.498;-1.506;2023-04-29T09:47:05;18.10;99.90
34644;DHT22;26931;43.498;-1.506;2023-04-29T09:52:02;18.10;99.90
34644;DHT22;26931;43.498;-1.506;2023-04-29T09:54:30;18.10;99.90
34644;DHT22;26931;43.498;-1.506;2023-04-29T09:56:58;18.30;99.90
34644;DHT22;26931;43.498;-1.506;2023-04-29T09:59:24;18.10;99.90
34644;DHT22;26931;43.498;-1.506;2023-04-29T10:01:57;18.10;99.90
34644;DHT22;26931;43.498;-1.506;2023-04-29T10:04:24;18.10;99.90
34644;DHT22;26931;43.498;-1.506;2023-04-29T10:06:55;18.10;99.90
34644;DHT22;26931;43.498;-1.506;2023-04-29T10:09:23;18.00;99.90
34644;DHT22;26931;43.498;-1.506;2023-04-29T10:11:51;18.10;99.90
34644;DHT22;26931;43.498;-1.506;2023-04-29T10:14:24;18.10;99.90
34644;DHT22;26931;43.498;-1.506;2023-04-29T10:17:11;18.40;99.90
34644;DHT22;26931;43.498;-1.506;2023-04-29T10:20:03;18.10;99.90
34644;DHT22;26931;43.498;-1.506;2023-04-29T10:22:45;18.20;99.90
34644;DHT22;26931;43.498;-1.506;2023-04-29T10:25:21;17.90;99.90
34644;DHT22;26931;43.498;-1.506;2023-04-29T10:27:49;18.10;99.90
34644;DHT22;26931;43.498;-1.506;2023-04-29T10:30:18;18.10;99.90
34644;DHT22;26931;43.498;-1.506;2023-04-29T10:32:45;18.10;99.90
34644;DHT22;26931;43.498;-1.506;2023-04-29T10:35:13;18.10;99.90
34644;DHT22;26931;43.498;-1.506;2023-04-29T10:37:43;18.10;99.90
34644;DHT22;26931;43.498;-1.506;2023-04-29T10:40:22;18.10;99.90
34644;DHT22;26931;43.498;-1.506;2023-04-29T10:42:51;18.10;99.90
34644;DHT22;26931;43.498;-1.506;2023-04-29T10:50:28;18.00;99.90
34644;DHT22;26931;43.498;-1.506;2023-04-29T10:52:54;18.10;99.90
34644;DHT22;26931;43.498;-1.506;2023-04-29T10:55:22;18.10;99.90
34644;DHT22;26931;43.498;-1.506;2023-04-29T10:57:55;18.10;99.90
34644;DHT22;26931;43.498;-1.506;2023-04-29T11:00:29;18.10;99.90
34644;DHT22;26931;43.498;-1.506;2023-04-29T11:03:01;18.10;99.90
34644;DHT22;26931;43.498;-1.506;2023-04-29T11:05:32;18.10;99.90
34644;DHT22;26931;43.498;-1.506;2023-04-29T11:08:11;18.00;99.90
34644;DHT22;26931;43.498;-1.506;2023-04-29T11:10:44;18.10;99.90
34644;DHT22;26931;43.498;-1.506;2023-04-29T11:13:27;18.10;99.90
34644;DHT22;26931;43.498;-1.506;2023-04-29T11:16:03;18.10;99.90
34644;DHT22;26931;43.498;-1.506;2023-04-29T11:18:30;18.10;99.90
34644;DHT22;26931;43.498;-1.506;2023-04-29T11:23:35;18.10;99.90
34644;DHT22;26931;43.498;-1.506;2023-04-29T11:26:12;18.20;99.90
34644;DHT22;26931;43.498;-1.506;2023-04-29T11:28:41;18.20;99.90
34644;DHT22;26931;43.498;-1.506;2023-04-29T11:31:08;18.20;99.90
34644;DHT22;26931;43.498;-1.506;2023-04-29T11:33:34;18.20;99.90
34644;DHT22;26931;43.498;-1.506;2023-04-29T11:36:00;18.20;99.90
34644;DHT22;26931;43.498;-1.506;2023-04-29T11:38:30;18.30;99.90
34644;DHT22;26931;43.498;-1.506;2023-04-29T11:40:57;18.20;99.90
34644;DHT22;26931;43.498;-1.506;2023-04-29T11:43:24;18.30;99.90
34644;DHT22;26931;43.498;-1.506;2023-04-29T11:45:52;18.30;99.90
34644;DHT22;26931;43.498;-1.506;2023-04-29T11:48:21;18.30;99.90
34644;DHT22;26931;43.498;-1.506;2023-04-29T11:50:49;18.30;99.90
34644;DHT22;26931;43.498;-1.506;2023-04-29T11:53:18;18.50;99.90
34644;DHT22;26931;43.498;-1.506;2023-04-29T11:55:44;18.60;99.90
34644;DHT22;26931;43.498;-1.506;2023-04-29T11:58:11;18.50;99.90
34644;DHT22;26931;43.498;-1.506;2023-04-29T12:00:39;18.70;99.90
34644;DHT22;26931;43.498;-1.506;2023-04-29T12:03:15;18.70;99.90
34644;DHT22;26931;43.498;-1.506;2023-04-29T12:05:53;18.70;99.90
34644;DHT22;26931;43.498;-1.506;2023-04-29T12:08:24;18.70;99.90
34644;DHT22;26931;43.498;-1.506;2023-04-29T12:10:51;18.80;99.90
34644;DHT22;26931;43.498;-1.506;2023-04-29T12:13:18;18.70;99.90
34644;DHT22;26931;43.498;-1.506;2023-04-29T12:15:45;18.80;99.90
34644;DHT22;26931;43.498;-1.506;2023-04-29T12:18:12;18.90;99.90
34644;DHT22;26931;43.498;-1.506;2023-04-29T12:20:39;18.80;99.90
34644;DHT22;26931;43.498;-1.506;2023-04-29T12:23:18;18.80;99.90
34644;DHT22;26931;43.498;-1.506;2023-04-29T12:25:54;18.80;99.90
34644;DHT22;26931;43.498;-1.506;2023-04-29T12:28:22;18.80;99.90
34644;DHT22;26931;43.498;-1.506;2023-04-29T12:30:49;19.10;99.90
34644;DHT22;26931;43.498;-1.506;2023-04-29T12:33:23;18.80;99.90
34644;DHT22;26931;43.498;-1.506;2023-04-29T12:35:50;18.80;99.90
34644;DHT22;26931;43.498;-1.506;2023-04-29T12:38:20;18.80;99.90
34644;DHT22;26931;43.498;-1.506;2023-04-29T12:40:46;18.80;99.90
34644;DHT22;26931;43.498;-1.506;2023-04-29T12:43:12;18.80;99.90
34644;DHT22;26931;43.498;-1.506;2023-04-29T12:45:39;18.80;99.90
34644;DHT22;26931;43.498;-1.506;2023-04-29T12:48:05;18.70;99.90
34644;DHT22;26931;43.498;-1.506;2023-04-29T12:50:33;18.70;99.90
34644;DHT22;26931;43.498;-1.506;2023-04-29T12:53:00;18.80;99.90
34644;DHT22;26931;43.498;-1.506;2023-04-29T12:55:26;18.70;99.90
34644;DHT22;26931;43.498;-1.506;2023-04-29T12:57:52;18.80;99.90
34644;DHT22;26931;43.498;-1.506;2023-04-29T13:00:18;18.80;99.90
34644;DHT22;26931;43.498;-1.506;2023-04-29T13:02:45;18.80;99.90
34644;DHT22;26931;43.498;-1.506;2023-04-29T13:05:12;18.90;99.90
34644;DHT22;26931;43.498;-1.506;2023-04-29T13:07:38;18.80;99.90
34644;DHT22;26931;43.498;-1.506;2023-04-29T13:10:05;18.80;99.90
34644;DHT22;26931;43.498;-1.506;2023-04-29T13:12:32;18.80;99.90
34644;DHT22;26931;43.498;-1.506;2023-04-29T13:14:58;18.80;99.90
34644;DHT22;26931;43.498;-1.506;2023-04-29T13:17:24;18.80;99.90
34644;DHT22;26931;43.498;-1.506;2023-04-29T13:19:50;18.80;99.90
34644;DHT22;26931;43.498;-1.506;2023-04-29T13:22:17;18.80;99.90
34644;DHT22;26931;43.498;-1.506;2023-04-29T13:24:43;18.80;99.90
34644;DHT22;26931;43.498;-1.506;2023-04-29T13:27:09;18.80;99.90
34644;DHT22;26931;43.498;-1.506;2023-04-29T13:29:35;19.00;99.90
34644;DHT22;26931;43.498;-1.506;2023-04-29T13:32:02;18.80;99.90
34644;DHT22;26931;43.498;-1.506;2023-04-29T13:34:28;18.70;99.90
34644;DHT22;26931;43.498;-1.506;2023-04-29T13:36:54;18.80;99.90
34644;DHT22;26931;43.498;-1.506;2023-04-29T13:39:20;18.80;99.90
34644;DHT22;26931;43.498;-1.506;2023-04-29T13:41:47;18.80;99.90
34644;DHT22;26931;43.498;-1.506;2023-04-29T13:44:14;18.70;99.90
34644;DHT22;26931;43.498;-1.506;2023-04-29T13:46:40;18.80;99.90
34644;DHT22;26931;43.498;-1.506;2023-04-29T13:49:06;19.00;99.90
34644;DHT22;26931;43.498;-1.506;2023-04-29T13:51:32;18.90;99.90
34644;DHT22;26931;43.498;-1.506;2023-04-29T13:53:58;18.70;99.90
34644;DHT22;26931;43.498;-1.506;2023-04-29T13:56:25;18.70;99.90
34644;DHT22;26931;43.498;-1.506;2023-04-29T13:58:51;18.60;99.90
34644;DHT22;26931;43.498;-1.506;2023-04-29T14:01:17;18.80;99.90
34644;DHT22;26931;43.498;-1.506;2023-04-29T14:03:44;18.70;99.90
34644;DHT22;26931;43.498;-1.506;2023-04-29T14:06:10;18.70;99.90
34644;DHT22;26931;43.498;-1.506;2023-04-29T14:08:36;18.70;99.90
34644;DHT22;26931;43.498;-1.506;2023-04-29T14:11:02;18.70;99.90
34644;DHT22;26931;43.498;-1.506;2023-04-29T14:13:28;18.80;99.90
34644;DHT22;26931;43.498;-1.506;2023-04-29T14:15:55;18.70;99.90
34644;DHT22;26931;43.498;-1.506;2023-04-29T14:18:21;18.70;99.90
34644;DHT22;26931;43.498;-1.506;2023-04-29T14:20:47;18.80;99.90
34644;DHT22;26931;43.498;-1.506;2023-04-29T14:23:13;18.50;99.90
34644;DHT22;26931;43.498;-1.506;2023-04-29T14:25:39;18.70;99.90
34644;DHT22;26931;43.498;-1.506;2023-04-29T14:28:05;18.70;99.90
34644;DHT22;26931;43.498;-1.506;2023-04-29T14:30:31;18.70;99.90
34644;DHT22;26931;43.498;-1.506;2023-04-29T14:32:58;18.80;99.90
34644;DHT22;26931;43.498;-1.506;2023-04-29T14:35:24;18.70;99.90
34644;DHT22;26931;43.498;-1.506;2023-04-29T14:37:50;18.70;99.90
34644;DHT22;26931;43.498;-1.506;2023-04-29T14:40:16;18.80;99.90
34644;DHT22;26931;43.498;-1.506;2023-04-29T14:42:42;18.70;99.90
34644;DHT22;26931;43.498;-1.506;2023-04-29T14:45:09;18.70;99.90
34644;DHT22;26931;43.498;-1.506;2023-04-29T14:47:35;18.80;99.90
34644;DHT22;26931;43.498;-1.506;2023-04-29T14:50:01;18.70;99.90
34644;DHT22;26931;43.498;-1.506;2023-04-29T14:52:28;18.70;99.90
34644;DHT22;26931;43.498;-1.506;2023-04-29T14:54:55;18.70;99.90
34644;DHT22;26931;43.498;-1.506;2023-04-29T14:57:21;18.80;99.90
34644;DHT22;26931;43.498;-1.506;2023-04-29T14:59:47;18.70;99.90
34644;DHT22;26931;43.498;-1.506;2023-04-29T15:02:14;18.70;99.90
34644;DHT22;26931;43.498;-1.506;2023-04-29T15:04:40;18.70;99.90
34644;DHT22;26931;43.498;-1.506;2023-04-29T15:07:11;18.50;99.90
34644;DHT22;26931;43.498;-1.506;2023-04-29T15:09:38;18.70;99.90
34644;DHT22;26931;43.498;-1.506;2023-04-29T15:12:05;18.90;99.90
34644;DHT22;26931;43.498;-1.506;2023-04-29T15:14:31;18.70;99.90
34644;DHT22;26931;43.498;-1.506;2023-04-29T15:16:58;18.70;99.90
34644;DHT22;26931;43.498;-1.506;2023-04-29T15:19:24;18.80;99.90
34644;DHT22;26931;43.498;-1.506;2023-04-29T15:21:51;18.60;99.90
34644;DHT22;26931;43.498;-1.506;2023-04-29T15:24:18;18.70;99.90
34644;DHT22;26931;43.498;-1.506;2023-04-29T15:26:44;18.60;99.90
34644;DHT22;26931;43.498;-1.506;2023-04-29T15:29:11;18.60;99.90
34644;DHT22;26931;43.498;-1.506;2023-04-29T15:31:37;18.60;99.90
34644;DHT22;26931;43.498;-1.506;2023-04-29T15:34:03;18.60;99.90
34644;DHT22;26931;43.498;-1.506;2023-04-29T15:36:30;18.50;99.90
34644;DHT22;26931;43.498;-1.506;2023-04-29T15:38:58;18.60;99.90
34644;DHT22;26931;43.498;-1.506;2023-04-29T15:41:25;18.40;99.90